sensor_id;sensor_type;location;lat;lon;timestamp;temperature;humidity
6948;DHT22;3513;47.664;9.162;2022-11-09T00:01:04;7.40;99.90
6948;DHT22;3513;47.664;9.162;2022-11-09T00:03:30;7.90;99.90
6948;DHT22;3513;47.664;9.162;2022-11-09T00:05:56;7.40;99.90
6948;DHT22;3513;47.664;9.162;2022-11-09T00:08:22;7.40;99.90
6948;DHT22;3513;47.664;9.162;2022-11-09T00:10:48;7.40;99.90
6948;DHT22;3513;47.664;9.162;2022-11-09T00:13:14;7.30;99.90
6948;DHT22;3513;47.664;9.162;2022-11-09T00:15:39;7.30;99.90
6948;DHT22;3513;47.664;9.162;2022-11-09T00:18:05;7.20;99.90
6948;DHT22;3513;47.664;9.162;2022-11-09T00:20:30;7.10;99.90
6948;DHT22;3513;47.664;9.162;2022-11-09T00:22:56;7.10;99.90
6948;DHT22;3513;47.664;9.162;2022-11-09T00:25:22;7.10;99.90
6948;DHT22;3513;47.664;9.162;2022-11-09T00:27:48;7.10;99.90
6948;DHT22;3513;47.664;9.162;2022-11-09T00:30:14;7.00;99.90
6948;DHT22;3513;47.664;9.162;2022-11-09T00:32:39;7.10;99.90
6948;DHT22;3513;47.664;9.162;2022-11-09T00:35:05;7.10;99.90
6948;DHT22;3513;47.664;9.162;2022-11-09T00:37:31;7.10;99.90
6948;DHT22;3513;47.664;9.162;2022-11-09T00:39:57;7.10;99.90
6948;DHT22;3513;47.664;9.162;2022-11-09T00:42:23;7.20;99.90
6948;DHT22;3513;47.664;9.162;2022-11-09T00:44:48;7.20;99.90
6948;DHT22;3513;47.664;9.162;2022-11-09T00:47:14;7.20;99.90
6948;DHT22;3513;47.664;9.162;2022-11-09T00:49:40;7.10;99.90
6948;DHT22;3513;47.664;9.162;2022-11-09T00:52:05;7.00;99.90
6948;DHT22;3513;47.664;9.162;2022-11-09T00:54:31;7.00;99.90
6948;DHT22;3513;47.664;9.162;2022-11-09T00:56:57;6.90;99.90
6948;DHT22;3513;47.664;9.162;2022-11-09T00:59:22;6.90;99.90
6948;DHT22;3513;47.664;9.162;2022-11-09T01:01:48;6.90;99.90
6948;DHT22;3513;47.664;9.162;2022-11-09T01:04:14;6.80;99.90
6948;DHT22;3513;47.664;9.162;2022-11-09T01:06:40;6.90;99.90
6948;DHT22;3513;47.664;9.162;2022-11-09T01:09:05;7.30;99.90
6948;DHT22;3513;47.664;9.162;2022-11-09T01:11:31;6.80;99.90
6948;DHT22;3513;47.664;9.162;2022-11-09T01:13:59;6.70;99.90
6948;DHT22;3513;47.664;9.162;2022-11-09T01:16:26;6.80;99.90
6948;DHT22;3513;47.664;9.162;2022-11-09T01:18:55;6.80;99.90
6948;DHT22;3513;47.664;9.162;2022-11-09T01:21:21;6.80;99.90
6948;DHT22;3513;47.664;9.162;2022-11-09T01:23:47;6.80;99.90
6948;DHT22;3513;47.664;9.162;2022-11-09T01:26:14;6.80;99.90
6948;DHT22;3513;47.664;9.162;2022-11-09T01:28:40;6.80;99.90
6948;DHT22;3513;47.664;9.162;2022-11-09T01:31:11;6.80;99.90
6948;DHT22;3513;47.664;9.162;2022-11-09T01:33:38;6.70;99.90
6948;DHT22;3513;47.664;9.162;2022-11-09T01:36:12;6.70;99.90
6948;DHT22;3513;47.664;9.162;2022-11-09T01:38:38;6.70;99.90
6948;DHT22;3513;47.664;9.162;2022-11-09T01:41:06;6.60;99.90
6948;DHT22;3513;47.664;9.162;2022-11-09T01:43:32;6.60;99.90
6948;DHT22;3513;47.664;9.162;2022-11-09T01:51:25;6.50;99.90
6948;DHT22;3513;47.664;9.162;2022-11-09T01:53:54;6.50;99.90
6948;DHT22;3513;47.664;9.162;2022-11-09T01:56:21;6.50;99.90
6948;DHT22;3513;47.664;9.162;2022-11-09T01:58:52;6.40;99.90
6948;DHT22;3513;47.664;9.162;2022-11-09T02:01:18;6.40;99.90
6948;DHT22;3513;47.664;9.162;2022-11-09T02:03:50;6.40;99.90
6948;DHT22;3513;47.664;9.162;2022-11-09T02:06:18;6.40;99.90
6948;DHT22;3513;47.664;9.162;2022-11-09T02:08:45;6.40;99.90
6948;DHT22;3513;47.664;9.162;2022-11-09T02:11:16;6.40;99.90
6948;DHT22;3513;47.664;9.162;2022-11-09T02:13:54;6.40;99.90
6948;DHT22;3513;47.664;9.162;2022-11-09T02:16:21;6.30;99.90
6948;DHT22;3513;47.664;9.162;2022-11-09T02:18:57;6.30;99.90
6948;DHT22;3513;47.664;9.162;2022-11-09T02:21:26;6.40;99.90
6948;DHT22;3513;47.664;9.162;2022-11-09T02:23:52;6.30;99.90
6948;DHT22;3513;47.664;9.162;2022-11-09T02:26:45;6.30;99.90
6948;DHT22;3513;47.664;9.162;2022-11-09T02:29:34;6.30;99.90
6948;DHT22;3513;47.664;9.162;2022-11-09T02:32:05;6.40;99.90
6948;DHT22;3513;47.664;9.162;2022-11-09T02:34:33;6.40;99.90
6948;DHT22;3513;47.664;9.162;2022-11-09T02:36:58;6.40;99.90
6948;DHT22;3513;47.664;9.162;2022-11-09T02:39:25;6.60;99.90
6948;DHT22;3513;47.664;9.162;2022-11-09T02:41:56;6.60;99.90
6948;DHT22;3513;47.664;9.162;2022-11-09T02:44:23;6.50;99.90
6948;DHT22;3513;47.664;9.162;2022-11-09T02:46:50;6.60;99.90
6948;DHT22;3513;47.664;9.162;2022-11-09T02:49:16;6.60;99.90
6948;DHT22;3513;47.664;9.162;2022-11-09T02:51:41;6.50;99.90
6948;DHT22;3513;47.664;9.162;2022-11-09T02:54:07;6.50;99.90
6948;DHT22;3513;47.664;9.162;2022-11-09T02:56:33;6.50;99.90
6948;DHT22;3513;47.664;9.162;2022-11-09T02:58:59;6.50;99.90
6948;DHT22;3513;47.664;9.162;2022-11-09T03:01:24;6.60;99.90
6948;DHT22;3513;47.664;9.162;2022-11-09T03:03:50;6.70;99.90
6948;DHT22;3513;47.664;9.162;2022-11-09T03:06:16;6.60;99.90
6948;DHT22;3513;47.664;9.162;2022-11-09T03:08:41;6.60;99.90
6948;DHT22;3513;47.664;9.162;2022-11-09T03:11:07;6.70;99.90
6948;DHT22;3513;47.664;9.162;2022-11-09T03:13:33;6.70;99.90
6948;DHT22;3513;47.664;9.162;2022-11-09T03:16:03;6.80;99.90
6948;DHT22;3513;47.664;9.162;2022-11-09T03:18:29;6.80;99.90
6948;DHT22;3513;47.664;9.162;2022-11-09T03:21:00;6.80;99.90
6948;DHT22;3513;47.664;9.162;2022-11-09T03:23:26;6.90;99.90
6948;DHT22;3513;47.664;9.162;2022-11-09T03:25:51;6.90;99.90
6948;DHT22;3513;47.664;9.162;2022-11-09T03:28:17;6.90;99.90
6948;DHT22;3513;47.664;9.162;2022-11-09T03:30:43;6.90;99.90
6948;DHT22;3513;47.664;9.162;2022-11-09T03:33:08;7.00;99.90
6948;DHT22;3513;47.664;9.162;2022-11-09T03:35:35;7.00;99.90
6948;DHT22;3513;47.664;9.162;2022-11-09T03:38:02;7.10;99.90
6948;DHT22;3513;47.664;9.162;2022-11-09T03:40:30;7.00;99.90
6948;DHT22;3513;47.664;9.162;2022-11-09T03:42:57;7.10;99.90
6948;DHT22;3513;47.664;9.162;2022-11-09T03:45:23;7.10;99.90
6948;DHT22;3513;47.664;9.162;2022-11-09T03:47:49;7.20;99.90
6948;DHT22;3513;47.664;9.162;2022-11-09T03:50:16;7.20;99.90
6948;DHT22;3513;47.664;9.162;2022-11-09T03:52:46;7.30;99.90
6948;DHT22;3513;47.664;9.162;2022-11-09T03:55:13;7.30;99.90
6948;DHT22;3513;47.664;9.162;2022-11-09T03:57:39;7.30;99.90
6948;DHT22;3513;47.664;9.162;2022-11-09T04:00:06;7.30;99.90
6948;DHT22;3513;47.664;9.162;2022-11-09T04:02:32;7.30;99.90
6948;DHT22;3513;47.664;9.162;2022-11-09T04:04:58;7.30;99.90
6948;DHT22;3513;47.664;9.162;2022-11-09T04:07:23;7.30;99.90
6948;DHT22;3513;47.664;9.162;2022-11-09T04:09:49;7.20;99.90
6948;DHT22;3513;47.664;9.162;2022-11-09T04:12:15;7.20;99.90
6948;DHT22;3513;47.664;9.162;2022-11-09T04:14:43;7.00;99.90
6948;DHT22;3513;47.664;9.162;2022-11-09T04:17:09;8.00;99.90
6948;DHT22;3513;47.664;9.162;2022-11-09T04:19:35;7.30;99.90
6948;DHT22;3513;47.664;9.162;2022-11-09T04:22:00;7.30;99.90
6948;DHT22;3513;47.664;9.162;2022-11-09T04:24:26;7.30;99.90
6948;DHT22;3513;47.664;9.162;2022-11-09T04:26:52;7.30;99.90
6948;DHT22;3513;47.664;9.162;2022-11-09T04:29:18;7.30;99.90
6948;DHT22;3513;47.664;9.162;2022-11-09T04:31:43;7.30;99.90
6948;DHT22;3513;47.664;9.162;2022-11-09T04:34:09;7.30;99.90
6948;DHT22;3513;47.664;9.162;2022-11-09T04:36:35;7.40;99.90
6948;DHT22;3513;47.664;9.162;2022-11-09T04:39:00;7.40;99.90
6948;DHT22;3513;47.664;9.162;2022-11-09T04:41:26;7.30;99.90
6948;DHT22;3513;47.664;9.162;2022-11-09T04:43:52;7.40;99.90
6948;DHT22;3513;47.664;9.162;2022-11-09T04:46:18;7.40;99.90
6948;DHT22;3513;47.664;9.162;2022-11-09T04:48:44;7.50;99.90
6948;DHT22;3513;47.664;9.162;2022-11-09T04:51:10;7.50;99.90
6948;DHT22;3513;47.664;9.162;2022-11-09T04:53:36;7.60;99.90
6948;DHT22;3513;47.664;9.162;2022-11-09T04:56:04;7.60;99.90
6948;DHT22;3513;47.664;9.162;2022-11-09T04:58:30;7.60;99.90
6948;DHT22;3513;47.664;9.162;2022-11-09T05:01:02;7.60;99.90
6948;DHT22;3513;47.664;9.162;2022-11-09T05:03:28;7.70;99.90
6948;DHT22;3513;47.664;9.162;2022-11-09T05:05:54;7.80;99.90
6948;DHT22;3513;47.664;9.162;2022-11-09T05:08:19;7.80;99.90
6948;DHT22;3513;47.664;9.162;2022-11-09T05:10:47;7.80;99.90
6948;DHT22;3513;47.664;9.162;2022-11-09T05:13:16;6.70;99.90
6948;DHT22;3513;47.664;9.162;2022-11-09T05:15:42;7.90;99.90
6948;DHT22;3513;47.664;9.162;2022-11-09T05:18:08;7.90;99.90
6948;DHT22;3513;47.664;9.162;2022-11-09T05:20:35;7.90;99.90
6948;DHT22;3513;47.664;9.162;2022-11-09T05:23:01;7.90;99.90
6948;DHT22;3513;47.664;9.162;2022-11-09T05:25:46;7.90;99.90
6948;DHT22;3513;47.664;9.162;2022-11-09T05:28:12;8.00;99.90
6948;DHT22;3513;47.664;9.162;2022-11-09T05:30:38;8.00;99.90
6948;DHT22;3513;47.664;9.162;2022-11-09T05:33:09;8.00;99.90
6948;DHT22;3513;47.664;9.162;2022-11-09T05:35:34;8.00;99.90
6948;DHT22;3513;47.664;9.162;2022-11-09T05:38:00;8.10;99.90
6948;DHT22;3513;47.664;9.162;2022-11-09T05:40:26;8.10;99.90
6948;DHT22;3513;47.664;9.162;2022-11-09T05:42:51;8.10;99.90
6948;DHT22;3513;47.664;9.162;2022-11-09T05:45:17;8.10;99.90
6948;DHT22;3513;47.664;9.162;2022-11-09T05:47:44;8.10;99.90
6948;DHT22;3513;47.664;9.162;2022-11-09T05:50:14;8.10;99.90
6948;DHT22;3513;47.664;9.162;2022-11-09T05:52:43;8.10;99.90
6948;DHT22;3513;47.664;9.162;2022-11-09T05:55:09;8.20;99.90
6948;DHT22;3513;47.664;9.162;2022-11-09T05:57:34;8.20;99.90
6948;DHT22;3513;47.664;9.162;2022-11-09T06:00:00;8.20;99.90
6948;DHT22;3513;47.664;9.162;2022-11-09T06:02:29;8.20;99.90
6948;DHT22;3513;47.664;9.162;2022-11-09T06:04:55;8.30;99.90
6948;DHT22;3513;47.664;9.162;2022-11-09T06:07:21;8.30;99.90
6948;DHT22;3513;47.664;9.162;2022-11-09T06:09:46;8.30;99.90
6948;DHT22;3513;47.664;9.162;2022-11-09T06:12:12;8.30;99.90
6948;DHT22;3513;47.664;9.162;2022-11-09T06:14:38;8.30;99.90
6948;DHT22;3513;47.664;9.162;2022-11-09T06:17:03;8.40;99.90
6948;DHT22;3513;47.664;9.162;2022-11-09T06:19:29;8.40;99.90
6948;DHT22;3513;47.664;9.162;2022-11-09T06:21:54;8.40;99.90
6948;DHT22;3513;47.664;9.162;2022-11-09T06:24:20;8.50;99.90
6948;DHT22;3513;47.664;9.162;2022-11-09T06:26:46;8.50;99.90
6948;DHT22;3513;47.664;9.162;2022-11-09T06:29:11;8.50;99.90
6948;DHT22;3513;47.664;9.162;2022-11-09T06:31:37;8.50;99.90
6948;DHT22;3513;47.664;9.162;2022-11-09T06:34:03;8.50;99.90
6948;DHT22;3513;47.664;9.162;2022-11-09T06:36:30;8.60;99.90
6948;DHT22;3513;47.664;9.162;2022-11-09T06:38:56;8.60;99.90
6948;DHT22;3513;47.664;9.162;2022-11-09T06:41:21;8.60;99.90
6948;DHT22;3513;47.664;9.162;2022-11-09T06:43:47;8.60;99.90
6948;DHT22;3513;47.664;9.162;2022-11-09T06:46:13;8.70;99.90
6948;DHT22;3513;47.664;9.162;2022-11-09T06:48:42;8.70;99.90
6948;DHT22;3513;47.664;9.162;2022-11-09T06:51:09;8.70;99.90
6948;DHT22;3513;47.664;9.162;2022-11-09T06:53:35;8.80;99.90
6948;DHT22;3513;47.664;9.162;2022-11-09T06:56:03;8.80;99.90
6948;DHT22;3513;47.664;9.162;2022-11-09T06:58:30;8.90;99.90
6948;DHT22;3513;47.664;9.162;2022-11-09T07:00:56;8.90;99.90
6948;DHT22;3513;47.664;9.162;2022-11-09T07:03:23;9.00;99.90
6948;DHT22;3513;47.664;9.162;2022-11-09T07:05:50;9.20;99.90
6948;DHT22;3513;47.664;9.162;2022-11-09T07:08:16;9.30;99.90
6948;DHT22;3513;47.664;9.162;2022-11-09T07:10:43;9.40;99.90
6948;DHT22;3513;47.664;9.162;2022-11-09T07:13:09;9.50;99.90
6948;DHT22;3513;47.664;9.162;2022-11-09T07:15:36;9.50;99.90
6948;DHT22;3513;47.664;9.162;2022-11-09T07:18:05;9.60;99.90
6948;DHT22;3513;47.664;9.162;2022-11-09T07:20:31;9.60;99.90
6948;DHT22;3513;47.664;9.162;2022-11-09T07:22:57;9.60;99.90
6948;DHT22;3513;47.664;9.162;2022-11-09T07:25:22;9.60;99.90
6948;DHT22;3513;47.664;9.162;2022-11-09T07:27:49;9.60;99.90
6948;DHT22;3513;47.664;9.162;2022-11-09T07:30:15;9.60;99.90
6948;DHT22;3513;47.664;9.162;2022-11-09T07:32:41;9.60;99.90
6948;DHT22;3513;47.664;9.162;2022-11-09T07:35:07;9.70;99.90
6948;DHT22;3513;47.664;9.162;2022-11-09T07:37:34;9.80;99.90
6948;DHT22;3513;47.664;9.162;2022-11-09T07:40:00;9.80;99.90
6948;DHT22;3513;47.664;9.162;2022-11-09T07:42:26;9.80;99.90
6948;DHT22;3513;47.664;9.162;2022-11-09T07:44:51;9.90;99.90
6948;DHT22;3513;47.664;9.162;2022-11-09T07:47:18;9.90;99.90
6948;DHT22;3513;47.664;9.162;2022-11-09T07:49:45;10.00;99.90
6948;DHT22;3513;47.664;9.162;2022-11-09T07:52:11;10.00;99.90
6948;DHT22;3513;47.664;9.162;2022-11-09T07:54:37;10.10;99.90
6948;DHT22;3513;47.664;9.162;2022-11-09T07:57:04;10.10;99.90
6948;DHT22;3513;47.664;9.162;2022-11-09T07:59:30;10.20;99.90
6948;DHT22;3513;47.664;9.162;2022-11-09T08:01:56;10.20;99.90
6948;DHT22;3513;47.664;9.162;2022-11-09T08:04:22;10.20;99.90
6948;DHT22;3513;47.664;9.162;2022-11-09T08:06:50;10.20;99.90
6948;DHT22;3513;47.664;9.162;2022-11-09T08:09:17;10.20;99.90
6948;DHT22;3513;47.664;9.162;2022-11-09T08:11:42;10.20;99.90
6948;DHT22;3513;47.664;9.162;2022-11-09T08:14:08;10.20;99.90
6948;DHT22;3513;47.664;9.162;2022-11-09T08:16:34;10.20;99.90
6948;DHT22;3513;47.664;9.162;2022-11-09T08:18:59;10.20;99.90
6948;DHT22;3513;47.664;9.162;2022-11-09T08:21:25;10.20;99.90
6948;DHT22;3513;47.664;9.162;2022-11-09T08:23:52;10.20;99.90
6948;DHT22;3513;47.664;9.162;2022-11-09T08:26:17;10.30;99.90
6948;DHT22;3513;47.664;9.162;2022-11-09T08:28:43;10.30;99.90
6948;DHT22;3513;47.664;9.162;2022-11-09T08:31:09;10.40;99.90
6948;DHT22;3513;47.664;9.162;2022-11-09T08:33:37;10.40;99.90
6948;DHT22;3513;47.664;9.162;2022-11-09T08:36:13;10.50;99.90
6948;DHT22;3513;47.664;9.162;2022-11-09T08:38:40;10.50;99.90
6948;DHT22;3513;47.664;9.162;2022-11-09T08:41:06;10.60;99.90
6948;DHT22;3513;47.664;9.162;2022-11-09T08:43:31;10.60;99.90
6948;DHT22;3513;47.664;9.162;2022-11-09T08:45:57;10.70;99.90
6948;DHT22;3513;47.664;9.162;2022-11-09T08:48:23;10.70;99.90
6948;DHT22;3513;47.664;9.162;2022-11-09T08:50:54;10.80;99.90
6948;DHT22;3513;47.664;9.162;2022-11-09T08:53:20;10.80;99.90
6948;DHT22;3513;47.664;9.162;2022-11-09T08:55:46;10.90;99.90
6948;DHT22;3513;47.664;9.162;2022-11-09T08:58:12;11.00;99.90
6948;DHT22;3513;47.664;9.162;2022-11-09T09:00:37;11.10;99.90
6948;DHT22;3513;47.664;9.162;2022-11-09T09:03:04;11.20;99.90
6948;DHT22;3513;47.664;9.162;2022-11-09T09:05:30;11.20;99.90
6948;DHT22;3513;47.664;9.162;2022-11-09T09:07:58;11.20;99.90
6948;DHT22;3513;47.664;9.162;2022-11-09T09:10:24;11.30;99.90
6948;DHT22;3513;47.664;9.162;2022-11-09T09:12:49;11.40;99.90
6948;DHT22;3513;47.664;9.162;2022-11-09T09:15:15;11.50;99.90
6948;DHT22;3513;47.664;9.162;2022-11-09T09:17:41;11.60;99.90
6948;DHT22;3513;47.664;9.162;2022-11-09T09:20:06;11.60;99.90
6948;DHT22;3513;47.664;9.162;2022-11-09T09:22:32;11.70;99.90
6948;DHT22;3513;47.664;9.162;2022-11-09T09:24:58;11.80;99.90
6948;DHT22;3513;47.664;9.162;2022-11-09T09:27:24;11.90;99.90
6948;DHT22;3513;47.664;9.162;2022-11-09T09:29:49;12.00;99.90
6948;DHT22;3513;47.664;9.162;2022-11-09T09:32:15;12.10;99.90
6948;DHT22;3513;47.664;9.162;2022-11-09T09:34:40;12.10;99.90
6948;DHT22;3513;47.664;9.162;2022-11-09T09:37:06;12.20;99.90
6948;DHT22;3513;47.664;9.162;2022-11-09T09:39:32;12.20;99.90
6948;DHT22;3513;47.664;9.162;2022-11-09T09:42:00;12.30;99.90
6948;DHT22;3513;47.664;9.162;2022-11-09T09:44:36;12.30;99.90
6948;DHT22;3513;47.664;9.162;2022-11-09T09:49:59;12.30;99.90
6948;DHT22;3513;47.664;9.162;2022-11-09T09:52:39;12.40;99.90
6948;DHT22;3513;47.664;9.162;2022-11-09T09:55:25;12.40;99.90
6948;DHT22;3513;47.664;9.162;2022-11-09T09:57:54;12.50;99.90
6948;DHT22;3513;47.664;9.162;2022-11-09T10:00:25;12.60;99.90
6948;DHT22;3513;47.664;9.162;2022-11-09T10:02:52;12.60;99.90
6948;DHT22;3513;47.664;9.162;2022-11-09T10:05:19;12.70;99.90
6948;DHT22;3513;47.664;9.162;2022-11-09T10:21:47;12.80;99.90
6948;DHT22;3513;47.664;9.162;2022-11-09T10:24:56;12.80;99.90
6948;DHT22;3513;47.664;9.162;2022-11-09T10:27:39;12.90;99.90
6948;DHT22;3513;47.664;9.162;2022-11-09T10:30:15;12.90;99.90
6948;DHT22;3513;47.664;9.162;2022-11-09T10:32:43;13.00;99.90
6948;DHT22;3513;47.664;9.162;2022-11-09T10:35:20;12.90;99.90
6948;DHT22;3513;47.664;9.162;2022-11-09T10:37:48;12.90;99.90
6948;DHT22;3513;47.664;9.162;2022-11-09T10:40:22;12.90;99.90
6948;DHT22;3513;47.664;9.162;2022-11-09T10:42:55;12.90;99.90
6948;DHT22;3513;47.664;9.162;2022-11-09T10:45:28;12.90;99.90
6948;DHT22;3513;47.664;9.162;2022-11-09T10:47:54;12.90;99.90
6948;DHT22;3513;47.664;9.162;2022-11-09T11:01:04;12.90;99.90
6948;DHT22;3513;47.664;9.162;2022-11-09T11:03:37;12.80;99.90
6948;DHT22;3513;47.664;9.162;2022-11-09T11:06:17;12.70;99.90
6948;DHT22;3513;47.664;9.162;2022-11-09T11:11:36;12.70;99.90
6948;DHT22;3513;47.664;9.162;2022-11-09T11:14:29;12.80;99.90
6948;DHT22;3513;47.664;9.162;2022-11-09T11:16:56;12.90;99.90
6948;DHT22;3513;47.664;9.162;2022-11-09T11:19:39;12.80;99.90
6948;DHT22;3513;47.664;9.162;2022-11-09T11:24:56;12.80;99.90
6948;DHT22;3513;47.664;9.162;2022-11-09T11:27:57;12.90;99.90
6948;DHT22;3513;47.664;9.162;2022-11-09T11:30:31;12.90;99.90
6948;DHT22;3513;47.664;9.162;2022-11-09T11:32:59;12.90;99.90
6948;DHT22;3513;47.664;9.162;2022-11-09T11:41:33;13.30;99.90
6948;DHT22;3513;47.664;9.162;2022-11-09T11:55:46;13.50;99.90
6948;DHT22;3513;47.664;9.162;2022-11-09T12:06:40;13.20;99.90
6948;DHT22;3513;47.664;9.162;2022-11-09T12:09:17;13.10;99.90
6948;DHT22;3513;47.664;9.162;2022-11-09T12:25:17;13.40;99.90
6948;DHT22;3513;47.664;9.162;2022-11-09T12:31:09;13.10;99.90
6948;DHT22;3513;47.664;9.162;2022-11-09T12:37:12;13.10;99.90
6948;DHT22;3513;47.664;9.162;2022-11-09T12:39:45;13.00;99.90
6948;DHT22;3513;47.664;9.162;2022-11-09T12:42:36;13.00;99.90
6948;DHT22;3513;47.664;9.162;2022-11-09T12:47:43;13.10;99.90
6948;DHT22;3513;47.664;9.162;2022-11-09T12:50:17;13.10;99.90
6948;DHT22;3513;47.664;9.162;2022-11-09T12:52:44;13.10;99.90
6948;DHT22;3513;47.664;9.162;2022-11-09T12:55:20;13.20;99.90
6948;DHT22;3513;47.664;9.162;2022-11-09T12:57:47;13.20;99.90
6948;DHT22;3513;47.664;9.162;2022-11-09T13:00:49;13.30;99.90
6948;DHT22;3513;47.664;9.162;2022-11-09T13:03:21;13.20;99.90
6948;DHT22;3513;47.664;9.162;2022-11-09T13:05:48;13.20;99.90
6948;DHT22;3513;47.664;9.162;2022-11-09T13:08:33;13.10;99.90
6948;DHT22;3513;47.664;9.162;2022-11-09T13:13:45;13.10;99.90
6948;DHT22;3513;47.664;9.162;2022-11-09T13:16:30;13.10;99.90
6948;DHT22;3513;47.664;9.162;2022-11-09T13:18:56;13.00;99.90
6948;DHT22;3513;47.664;9.162;2022-11-09T13:23:49;12.90;99.90
6948;DHT22;3513;47.664;9.162;2022-11-09T13:26:53;12.90;99.90
6948;DHT22;3513;47.664;9.162;2022-11-09T13:29:48;12.80;99.90
6948;DHT22;3513;47.664;9.162;2022-11-09T13:34:56;12.70;99.90
6948;DHT22;3513;47.664;9.162;2022-11-09T13:42:58;12.70;99.90
6948;DHT22;3513;47.664;9.162;2022-11-09T13:45:44;12.70;99.90
6948;DHT22;3513;47.664;9.162;2022-11-09T13:48:45;12.70;99.90
6948;DHT22;3513;47.664;9.162;2022-11-09T13:51:35;12.70;99.90
6948;DHT22;3513;47.664;9.162;2022-11-09T13:54:43;12.70;99.90
6948;DHT22;3513;47.664;9.162;2022-11-09T13:57:08;12.70;99.90
6948;DHT22;3513;47.664;9.162;2022-11-09T13:59:44;12.70;99.90
6948;DHT22;3513;47.664;9.162;2022-11-09T14:02:18;12.60;99.90
6948;DHT22;3513;47.664;9.162;2022-11-09T14:04:44;12.50;99.90
6948;DHT22;3513;47.664;9.162;2022-11-09T14:07:23;12.50;99.90
6948;DHT22;3513;47.664;9.162;2022-11-09T14:23:28;12.30;99.90
6948;DHT22;3513;47.664;9.162;2022-11-09T14:25:55;12.30;99.90
6948;DHT22;3513;47.664;9.162;2022-11-09T14:28:29;12.20;99.90
6948;DHT22;3513;47.664;9.162;2022-11-09T14:30:57;12.10;99.90
6948;DHT22;3513;47.664;9.162;2022-11-09T14:33:25;12.10;99.90
6948;DHT22;3513;47.664;9.162;2022-11-09T14:35:53;12.10;99.90
6948;DHT22;3513;47.664;9.162;2022-11-09T14:38:32;12.10;99.90
6948;DHT22;3513;47.664;9.162;2022-11-09T14:40:59;12.00;99.90
6948;DHT22;3513;47.664;9.162;2022-11-09T14:43:43;12.00;99.90
6948;DHT22;3513;47.664;9.162;2022-11-09T14:46:20;12.00;99.90
6948;DHT22;3513;47.664;9.162;2022-11-09T14:48:58;12.00;99.90
6948;DHT22;3513;47.664;9.162;2022-11-09T14:51:38;12.10;99.90
6948;DHT22;3513;47.664;9.162;2022-11-09T14:54:11;12.20;99.90
6948;DHT22;3513;47.664;9.162;2022-11-09T14:56:38;12.10;99.90
6948;DHT22;3513;47.664;9.162;2022-11-09T14:59:07;12.00;99.90
6948;DHT22;3513;47.664;9.162;2022-11-09T15:01:33;11.90;99.90
6948;DHT22;3513;47.664;9.162;2022-11-09T15:04:18;11.90;99.90
6948;DHT22;3513;47.664;9.162;2022-11-09T15:06:50;11.80;99.90
6948;DHT22;3513;47.664;9.162;2022-11-09T15:09:22;11.70;99.90
6948;DHT22;3513;47.664;9.162;2022-11-09T15:11:49;11.70;99.90
6948;DHT22;3513;47.664;9.162;2022-11-09T15:16:45;11.50;99.90
6948;DHT22;3513;47.664;9.162;2022-11-09T15:19:30;11.50;99.90
6948;DHT22;3513;47.664;9.162;2022-11-09T15:21:57;11.50;99.90
6948;DHT22;3513;47.664;9.162;2022-11-09T15:24:25;11.50;99.90
6948;DHT22;3513;47.664;9.162;2022-11-09T15:26:52;11.50;99.90
6948;DHT22;3513;47.664;9.162;2022-11-09T15:32:13;11.40;99.90
6948;DHT22;3513;47.664;9.162;2022-11-09T15:37:24;11.40;99.90
6948;DHT22;3513;47.664;9.162;2022-11-09T15:39:50;11.50;99.90
6948;DHT22;3513;47.664;9.162;2022-11-09T15:42:16;11.50;99.90
6948;DHT22;3513;47.664;9.162;2022-11-09T15:44:42;11.50;99.90
6948;DHT22;3513;47.664;9.162;2022-11-09T15:47:50;11.50;99.90
6948;DHT22;3513;47.664;9.162;2022-11-09T15:50:20;11.40;99.90
6948;DHT22;3513;47.664;9.162;2022-11-09T15:52:46;11.50;99.90
6948;DHT22;3513;47.664;9.162;2022-11-09T15:55:20;11.40;99.90
6948;DHT22;3513;47.664;9.162;2022-11-09T15:57:47;11.50;99.90
6948;DHT22;3513;47.664;9.162;2022-11-09T16:00:15;11.50;99.90
6948;DHT22;3513;47.664;9.162;2022-11-09T16:02:41;11.50;99.90
6948;DHT22;3513;47.664;9.162;2022-11-09T16:05:07;11.60;99.90
6948;DHT22;3513;47.664;9.162;2022-11-09T16:07:33;11.50;99.90
6948;DHT22;3513;47.664;9.162;2022-11-09T16:09:59;11.50;99.90
6948;DHT22;3513;47.664;9.162;2022-11-09T16:12:25;11.40;99.90
6948;DHT22;3513;47.664;9.162;2022-11-09T16:14:51;11.40;99.90
6948;DHT22;3513;47.664;9.162;2022-11-09T16:17:16;11.40;99.90
6948;DHT22;3513;47.664;9.162;2022-11-09T16:19:42;11.30;99.90
6948;DHT22;3513;47.664;9.162;2022-11-09T16:22:09;11.30;99.90
6948;DHT22;3513;47.664;9.162;2022-11-09T16:24:36;11.30;99.90
6948;DHT22;3513;47.664;9.162;2022-11-09T16:27:02;11.20;99.90
6948;DHT22;3513;47.664;9.162;2022-11-09T16:29:28;11.10;99.90
6948;DHT22;3513;47.664;9.162;2022-11-09T16:31:54;11.10;99.90
6948;DHT22;3513;47.664;9.162;2022-11-09T16:34:20;11.20;99.90
6948;DHT22;3513;47.664;9.162;2022-11-09T16:36:48;11.20;99.90
6948;DHT22;3513;47.664;9.162;2022-11-09T16:39:14;11.10;99.90
6948;DHT22;3513;47.664;9.162;2022-11-09T16:41:48;11.10;99.90
6948;DHT22;3513;47.664;9.162;2022-11-09T16:44:16;11.20;99.90
6948;DHT22;3513;47.664;9.162;2022-11-09T16:46:44;11.20;99.90
6948;DHT22;3513;47.664;9.162;2022-11-09T16:49:11;11.20;99.90
6948;DHT22;3513;47.664;9.162;2022-11-09T16:51:36;11.10;99.90
6948;DHT22;3513;47.664;9.162;2022-11-09T16:54:02;11.10;99.90
6948;DHT22;3513;47.664;9.162;2022-11-09T16:56:28;11.20;99.90
6948;DHT22;3513;47.664;9.162;2022-11-09T16:58:53;11.10;99.90
6948;DHT22;3513;47.664;9.162;2022-11-09T17:01:19;11.10;99.90
6948;DHT22;3513;47.664;9.162;2022-11-09T17:03:47;11.20;99.90
6948;DHT22;3513;47.664;9.162;2022-11-09T17:06:13;11.10;99.90
6948;DHT22;3513;47.664;9.162;2022-11-09T17:08:39;11.20;99.90
6948;DHT22;3513;47.664;9.162;2022-11-09T17:11:10;11.20;99.90
6948;DHT22;3513;47.664;9.162;2022-11-09T17:13:37;11.20;99.90
6948;DHT22;3513;47.664;9.162;2022-11-09T17:16:05;11.20;99.90
6948;DHT22;3513;47.664;9.162;2022-11-09T17:18:31;11.20;99.90
6948;DHT22;3513;47.664;9.162;2022-11-09T17:20:56;11.30;99.90
6948;DHT22;3513;47.664;9.162;2022-11-09T17:23:22;11.40;99.90
6948;DHT22;3513;47.664;9.162;2022-11-09T17:25:59;11.40;99.90
6948;DHT22;3513;47.664;9.162;2022-11-09T17:28:26;11.40;99.90
6948;DHT22;3513;47.664;9.162;2022-11-09T17:30:52;11.40;99.90
6948;DHT22;3513;47.664;9.162;2022-11-09T17:33:18;11.40;99.90
6948;DHT22;3513;47.664;9.162;2022-11-09T17:35:44;11.30;99.90
6948;DHT22;3513;47.664;9.162;2022-11-09T17:38:10;11.40;99.90
6948;DHT22;3513;47.664;9.162;2022-11-09T17:40:36;11.30;99.90
6948;DHT22;3513;47.664;9.162;2022-11-09T17:43:03;11.30;99.90
6948;DHT22;3513;47.664;9.162;2022-11-09T17:45:28;11.30;99.90
6948;DHT22;3513;47.664;9.162;2022-11-09T17:47:54;11.30;99.90
6948;DHT22;3513;47.664;9.162;2022-11-09T17:50:20;11.30;99.90
6948;DHT22;3513;47.664;9.162;2022-11-09T17:52:47;11.30;99.90
6948;DHT22;3513;47.664;9.162;2022-11-09T17:55:13;11.30;99.90
6948;DHT22;3513;47.664;9.162;2022-11-09T17:57:38;11.40;99.90
6948;DHT22;3513;47.664;9.162;2022-11-09T18:00:05;11.40;99.90
6948;DHT22;3513;47.664;9.162;2022-11-09T18:02:31;11.40;99.90
6948;DHT22;3513;47.664;9.162;2022-11-09T18:04:58;11.30;99.90
6948;DHT22;3513;47.664;9.162;2022-11-09T18:07:23;11.40;99.90
6948;DHT22;3513;47.664;9.162;2022-11-09T18:09:49;11.50;99.90
6948;DHT22;3513;47.664;9.162;2022-11-09T18:12:15;11.50;99.90
6948;DHT22;3513;47.664;9.162;2022-11-09T18:14:40;11.50;99.90
6948;DHT22;3513;47.664;9.162;2022-11-09T18:17:06;11.50;99.90
6948;DHT22;3513;47.664;9.162;2022-11-09T18:19:32;11.50;99.90
6948;DHT22;3513;47.664;9.162;2022-11-09T18:21:57;11.50;99.90